Time,TemperatureF,DewpointF,PressureIn,WindDirection,WindDirectionDegrees,WindSpeedMPH,WindSpeedGustMPH,Humidity,HourlyPrecipIn,Conditions,Clouds,dailyrainin,SoftwareType,DateUTC
2013-10-14 00:04:00,55.4,55.0,30.24,East,85,0.0,-999.0,99,-99.99,,,0.00,weatherlink.com 1.10,2013-10-14 04:04:00,
2013-10-14 00:19:00,55.4,55.0,30.23,East,85,0.0,-999.0,99,-99.99,,,0.00,weatherlink.com 1.10,2013-10-14 04:19:00,
2013-10-14 00:34:00,55.4,55.0,30.23,East,85,0.0,-999.0,99,-99.99,,,0.00,weatherlink.com 1.10,2013-10-14 04:34:00,
2013-10-14 00:49:00,55.3,55.0,30.23,East,85,0.0,-999.0,99,-99.99,,,0.00,weatherlink.com 1.10,2013-10-14 04:49:00,
2013-10-14 01:04:00,55.3,55.0,30.23,East,91,1.0,-999.0,99,-99.99,,,0.00,weatherlink.com 1.10,2013-10-14 05:04:00,
2013-10-14 01:19:00,55.3,55.0,30.23,East,91,0.0,-999.0,99,-99.99,,,0.00,weatherlink.com 1.10,2013-10-14 05:19:00,
2013-10-14 01:34:00,55.3,55.0,30.23,East,79,0.0,-999.0,99,-99.99,,,0.00,weatherlink.com 1.10,2013-10-14 05:34:00,
2013-10-14 01:49:00,55.3,55.0,30.22,East,86,2.0,-999.0,99,-99.99,,,0.02,weatherlink.com 1.10,2013-10-14 05:49:00,
2013-10-14 02:04:00,55.1,55.0,30.22,East,94,0.0,-999.0,99,-99.99,,,0.02,weatherlink.com 1.10,2013-10-14 06:04:00,
2013-10-14 02:19:00,55.1,55.0,30.22,East,94,0.0,-999.0,99,-99.99,,,0.02,weatherlink.com 1.10,2013-10-14 06:19:00,
2013-10-14 02:34:00,55.1,55.0,30.22,East,94,0.0,-999.0,99,-99.99,,,0.02,weatherlink.com 1.10,2013-10-14 06:34:00,
2013-10-14 02:49:00,55.0,55.0,30.22,East,94,0.0,-999.0,99,-99.99,,,0.02,weatherlink.com 1.10,2013-10-14 06:49:00,
2013-10-14 03:04:00,55.0,55.0,30.22,East,92,1.0,-999.0,99,-99.99,,,0.02,weatherlink.com 1.10,2013-10-14 07:04:00,
2013-10-14 03:19:00,54.8,55.0,30.22,ENE,59,2.0,-999.0,99,-99.99,,,0.02,weatherlink.com 1.10,2013-10-14 07:19:00,
2013-10-14 03:34:00,54.6,54.0,30.21,ENE,64,1.0,-999.0,99,-99.99,,,0.02,weatherlink.com 1.10,2013-10-14 07:34:00,
2013-10-14 03:49:00,54.6,54.0,30.21,NNE,24,1.0,-999.0,99,-99.99,,,0.02,weatherlink.com 1.10,2013-10-14 07:49:00,
2013-10-14 04:04:00,54.6,54.0,30.21,ENE,77,2.0,-999.0,99,-99.99,,,0.02,weatherlink.com 1.10,2013-10-14 08:04:00,
2013-10-14 04:19:00,54.5,54.0,30.21,NNE,22,0.0,-999.0,99,-99.99,,,0.02,weatherlink.com 1.10,2013-10-14 08:19:00,
2013-10-14 04:34:00,54.5,54.0,30.21,NNE,13,4.0,-999.0,99,-99.99,,,0.02,weatherlink.com 1.10,2013-10-14 08:34:00,
2013-10-14 04:49:00,54.3,54.0,30.21,ENE,69,3.0,-999.0,99,-99.99,,,0.02,weatherlink.com 1.10,2013-10-14 08:49:00,
2013-10-14 05:04:00,54.3,54.0,30.21,NNE,19,3.0,-999.0,99,-99.99,,,0.02,weatherlink.com 1.10,2013-10-14 09:04:00,
2013-10-14 05:19:00,54.2,54.0,30.21,NE,40,4.0,-999.0,99,-99.99,,,0.02,weatherlink.com 1.10,2013-10-14 09:19:00,
2013-10-14 05:34:00,54.2,54.0,30.21,ENE,67,2.0,-999.0,99,-99.99,,,0.02,weatherlink.com 1.10,2013-10-14 09:34:00,
2013-10-14 05:49:00,54.1,54.0,30.21,NE,35,0.0,-999.0,99,-99.99,,,0.03,weatherlink.com 1.10,2013-10-14 09:49:00,
2013-10-14 06:04:00,54.0,54.0,30.20,ENE,74,4.0,-999.0,99,-99.99,,,0.03,weatherlink.com 1.10,2013-10-14 10:04:00,
2013-10-14 06:19:00,53.9,54.0,30.21,NNE,29,2.0,-999.0,99,-99.99,,,0.03,weatherlink.com 1.10,2013-10-14 10:19:00,
2013-10-14 06:34:00,53.7,54.0,30.21,East,84,1.0,-999.0,99,-99.99,,,0.03,weatherlink.com 1.10,2013-10-14 10:34:00,
2013-10-14 06:49:00,53.5,53.0,30.22,NE,49,1.0,-999.0,99,-99.99,,,0.03,weatherlink.com 1.10,2013-10-14 10:49:00,
2013-10-14 07:04:00,53.2,53.0,30.22,East,81,0.0,-999.0,99,-99.99,,,0.03,weatherlink.com 1.10,2013-10-14 11:04:00,
2013-10-14 07:19:00,53.2,53.0,30.22,NE,41,1.0,-999.0,99,-99.99,,,0.03,weatherlink.com 1.10,2013-10-14 11:19:00,
2013-10-14 07:34:00,53.1,53.0,30.23,ENE,63,0.0,-999.0,99,-99.99,,,0.03,weatherlink.com 1.10,2013-10-14 11:34:00,
2013-10-14 07:49:00,52.9,53.0,30.23,NE,38,3.0,-999.0,99,-99.99,,,0.03,weatherlink.com 1.10,2013-10-14 11:49:00,
2013-10-14 08:04:00,52.9,53.0,30.23,NE,43,1.0,-999.0,100,-99.99,,,0.03,weatherlink.com 1.10,2013-10-14 12:04:00,
2013-10-14 08:19:00,53.4,53.0,30.23,NE,51,1.0,-999.0,100,-99.99,,,0.03,weatherlink.com 1.10,2013-10-14 12:19:00,
2013-10-14 08:34:00,53.7,54.0,30.23,East,83,0.0,-999.0,99,-99.99,,,0.03,weatherlink.com 1.10,2013-10-14 12:34:00,
2013-10-14 08:49:00,53.8,54.0,30.24,East,82,0.0,-999.0,99,-99.99,,,0.03,weatherlink.com 1.10,2013-10-14 12:49:00,
2013-10-14 09:04:00,53.9,54.0,30.25,East,83,3.0,-999.0,99,-99.99,,,0.03,weatherlink.com 1.10,2013-10-14 13:04:00,
2013-10-14 09:19:00,54.1,54.0,30.25,NE,46,0.0,-999.0,100,-99.99,,,0.03,weatherlink.com 1.10,2013-10-14 13:19:00,
2013-10-14 09:34:00,54.4,54.0,30.25,East,84,0.0,-999.0,100,-99.99,,,0.03,weatherlink.com 1.10,2013-10-14 13:34:00,
2013-10-14 09:49:00,54.5,54.0,30.25,East,84,0.0,-999.0,99,-99.99,,,0.03,weatherlink.com 1.10,2013-10-14 13:49:00,
2013-10-14 10:04:00,54.7,55.0,30.25,East,82,0.0,-999.0,100,-99.99,,,0.03,weatherlink.com 1.10,2013-10-14 14:04:00,
2013-10-14 10:19:00,54.7,55.0,30.25,East,92,0.0,-999.0,100,-99.99,,,0.03,weatherlink.com 1.10,2013-10-14 14:19:00,
2013-10-14 10:34:00,54.7,55.0,30.25,NE,34,5.0,-999.0,100,-99.99,,,0.03,weatherlink.com 1.10,2013-10-14 14:34:00,
2013-10-14 10:49:00,55.0,55.0,30.25,East,86,2.0,-999.0,99,-99.99,,,0.03,weatherlink.com 1.10,2013-10-14 14:49:00,
2013-10-14 11:04:00,55.0,55.0,30.25,East,80,0.0,-999.0,100,-99.99,,,0.03,weatherlink.com 1.10,2013-10-14 15:04:00,
2013-10-14 11:19:00,54.8,55.0,30.25,WSW,250,4.0,-999.0,100,-99.99,,,0.03,weatherlink.com 1.10,2013-10-14 15:19:00,
2013-10-14 11:34:00,54.8,55.0,30.26,West,279,0.0,-999.0,100,-99.99,,,0.04,weatherlink.com 1.10,2013-10-14 15:34:00,
2013-10-14 11:49:00,54.7,55.0,30.25,West,281,0.0,-999.0,100,-99.99,,,0.04,weatherlink.com 1.10,2013-10-14 15:49:00,
2013-10-14 12:04:00,54.9,55.0,30.25,WNW,282,2.0,-999.0,100,-99.99,,,0.04,weatherlink.com 1.10,2013-10-14 16:04:00,
2013-10-14 12:19:00,55.0,55.0,30.25,WNW,284,0.0,-999.0,100,-99.99,,,0.04,weatherlink.com 1.10,2013-10-14 16:19:00,
2013-10-14 12:34:00,55.2,55.0,30.25,NW,306,0.0,-999.0,100,-99.99,,,0.04,weatherlink.com 1.10,2013-10-14 16:34:00,
2013-10-14 12:49:00,55.3,55.0,30.25,East,97,0.0,-999.0,100,-99.99,,,0.04,weatherlink.com 1.10,2013-10-14 16:49:00,
2013-10-14 13:04:00,55.4,55.0,30.24,East,88,0.0,-999.0,100,-99.99,,,0.05,weatherlink.com 1.10,2013-10-14 17:04:00,
2013-10-14 13:20:00,56.0,56.0,30.23,East,94,5.0,-999.0,100,-99.99,,,0.05,weatherlink.com 1.10,2013-10-14 17:20:00,
2013-10-14 13:34:00,55.9,56.0,30.23,ESE,104,0.0,-999.0,100,-99.99,,,0.05,weatherlink.com 1.10,2013-10-14 17:34:00,
2013-10-14 13:49:00,55.9,56.0,30.23,ESE,106,1.0,-999.0,100,-99.99,,,0.05,weatherlink.com 1.10,2013-10-14 17:49:00,
2013-10-14 14:04:00,56.6,57.0,30.22,ESE,109,0.0,-999.0,100,-99.99,,,0.05,weatherlink.com 1.10,2013-10-14 18:04:00,
2013-10-14 14:19:00,56.0,56.0,30.22,East,93,2.0,-999.0,100,-99.99,,,0.05,weatherlink.com 1.10,2013-10-14 18:19:00,
2013-10-14 14:34:00,56.6,57.0,30.21,East,92,0.0,-999.0,100,-99.99,,,0.05,weatherlink.com 1.10,2013-10-14 18:34:00,
2013-10-14 14:49:00,56.7,57.0,30.21,East,83,3.0,-999.0,99,-99.99,,,0.05,weatherlink.com 1.10,2013-10-14 18:49:00,
2013-10-14 15:04:00,56.4,56.0,30.21,East,94,4.0,-999.0,99,-99.99,,,0.05,weatherlink.com 1.10,2013-10-14 19:04:00,
2013-10-14 15:19:00,56.4,56.0,30.20,ESE,113,2.0,-999.0,99,-99.99,,,0.05,weatherlink.com 1.10,2013-10-14 19:19:00,
2013-10-14 15:34:00,57.0,57.0,30.20,ESE,118,2.0,-999.0,99,-99.99,,,0.05,weatherlink.com 1.10,2013-10-14 19:34:00,
2013-10-14 15:49:00,57.5,57.0,30.20,ENE,74,1.0,-999.0,99,-99.99,,,0.05,weatherlink.com 1.10,2013-10-14 19:49:00,
2013-10-14 16:04:00,57.4,56.0,30.19,NNE,18,4.0,-999.0,95,-99.99,,,0.05,weatherlink.com 1.10,2013-10-14 20:04:00,
2013-10-14 16:19:00,57.7,56.0,30.19,East,93,0.0,-999.0,94,-99.99,,,0.05,weatherlink.com 1.10,2013-10-14 20:19:00,
2013-10-14 16:34:00,58.5,56.0,30.19,East,98,0.0,-999.0,92,-99.99,,,0.05,weatherlink.com 1.10,2013-10-14 20:34:00,
2013-10-14 16:49:00,58.5,56.0,30.19,East,94,0.0,-999.0,90,-99.99,,,0.05,weatherlink.com 1.10,2013-10-14 20:49:00,
2013-10-14 17:04:00,58.5,56.0,30.19,East,95,0.0,-999.0,90,-99.99,,,0.05,weatherlink.com 1.10,2013-10-14 21:04:00,
2013-10-14 17:19:00,59.5,56.0,30.19,ESE,119,0.0,-999.0,89,-99.99,,,0.05,weatherlink.com 1.10,2013-10-14 21:19:00,
2013-10-14 17:34:00,58.9,56.0,30.18,SE,129,1.0,-999.0,89,-99.99,,,0.05,weatherlink.com 1.10,2013-10-14 21:34:00,
2013-10-14 17:49:00,58.0,56.0,30.19,SE,130,0.0,-999.0,92,-99.99,,,0.05,weatherlink.com 1.10,2013-10-14 21:49:00,
2013-10-14 18:04:00,57.7,56.0,30.20,SE,130,0.0,-999.0,93,-99.99,,,0.05,weatherlink.com 1.10,2013-10-14 22:04:00,
2013-10-14 18:19:00,57.2,56.0,30.20,SE,130,0.0,-999.0,94,-99.99,,,0.05,weatherlink.com 1.10,2013-10-14 22:19:00,
2013-10-14 18:34:00,56.6,55.0,30.20,SE,130,0.0,-999.0,95,-99.99,,,0.05,weatherlink.com 1.10,2013-10-14 22:34:00,
2013-10-14 18:49:00,56.1,55.0,30.20,SE,130,0.0,-999.0,96,-99.99,,,0.05,weatherlink.com 1.10,2013-10-14 22:49:00,
2013-10-14 19:04:00,55.7,55.0,30.20,SE,130,0.0,-999.0,96,-99.99,,,0.05,weatherlink.com 1.10,2013-10-14 23:04:00,